Terminal Aerodrome Forecast
Issued by NWS Wakefield, VA

Home | Current Version | Previous Version | Text Only | Print | Product List | Glossary On
Versions: 1 2 3 4 5 6 7 8 9 10 11 12 13 14 15 16 17
762
FTUS41 KAKQ 221740
TAFECG
TAF
KECG 221740Z 2218/2318 11007KT P6SM FEW040
     FM230700 14003KT 4SM BR BKN025
     FM231200 14008KT P6SM SCT040 BKN200
     FM231500 15011G18KT P6SM SCT040 BKN200=

USA.gov is the U.S. government's official web portal to all federal, state and local government web resources and services.